sensor_id;sensor_type;location;lat;lon;timestamp;pressure;altitude;pressure_sealevel;temperature;humidity
17785;BME280;9016;53.582;10.062;2023-02-02T00:01:24;100987.81;;;7.27;84.48
17785;BME280;9016;53.582;10.062;2023-02-02T00:03:53;100999.22;;;7.29;85.88
17785;BME280;9016;53.582;10.062;2023-02-02T00:06:25;100996.63;;;7.28;85.89
17785;BME280;9016;53.582;10.062;2023-02-02T00:08:55;100996.09;;;7.20;86.30
17785;BME280;9016;53.582;10.062;2023-02-02T00:11:23;100987.56;;;7.33;86.05
17785;BME280;9016;53.582;10.062;2023-02-02T00:13:51;101012.00;;;7.40;85.30
17785;BME280;9016;53.582;10.062;2023-02-02T00:16:37;100997.03;;;7.39;85.71
17785;BME280;9016;53.582;10.062;2023-02-02T00:19:07;101010.03;;;7.45;85.47
17785;BME280;9016;53.582;10.062;2023-02-02T00:21:36;101010.75;;;7.48;84.99
17785;BME280;9016;53.582;10.062;2023-02-02T00:24:05;101009.56;;;7.55;84.17
17785;BME280;9016;53.582;10.062;2023-02-02T00:26:34;101021.28;;;7.50;83.47
17785;BME280;9016;53.582;10.062;2023-02-02T00:29:02;101022.97;;;7.52;83.97
17785;BME280;9016;53.582;10.062;2023-02-02T00:31:31;101026.53;;;7.51;83.50
17785;BME280;9016;53.582;10.062;2023-02-02T00:34:00;101032.47;;;7.56;83.19
17785;BME280;9016;53.582;10.062;2023-02-02T00:36:28;101024.66;;;7.53;84.11
17785;BME280;9016;53.582;10.062;2023-02-02T00:38:56;101037.75;;;7.58;84.63
17785;BME280;9016;53.582;10.062;2023-02-02T00:41:24;101031.34;;;7.62;84.13
17785;BME280;9016;53.582;10.062;2023-02-02T00:43:52;101036.81;;;7.59;83.66
17785;BME280;9016;53.582;10.062;2023-02-02T00:46:37;101038.88;;;7.52;83.88
17785;BME280;9016;53.582;10.062;2023-02-02T00:49:07;101046.53;;;7.58;83.55
17785;BME280;9016;53.582;10.062;2023-02-02T00:51:36;101046.28;;;7.64;83.15
17785;BME280;9016;53.582;10.062;2023-02-02T00:54:04;101042.75;;;7.64;83.34
17785;BME280;9016;53.582;10.062;2023-02-02T00:56:32;101058.63;;;7.65;83.74
17785;BME280;9016;53.582;10.062;2023-02-02T00:59:00;101061.94;;;7.70;83.44
17785;BME280;9016;53.582;10.062;2023-02-02T01:01:28;101049.41;;;7.74;83.25
17785;BME280;9016;53.582;10.062;2023-02-02T01:03:56;101053.97;;;7.70;83.28
17785;BME280;9016;53.582;10.062;2023-02-02T01:06:26;101060.00;;;7.74;82.63
17785;BME280;9016;53.582;10.062;2023-02-02T01:08:53;101065.47;;;7.71;83.54
17785;BME280;9016;53.582;10.062;2023-02-02T01:11:22;101071.03;;;7.65;83.84
17785;BME280;9016;53.582;10.062;2023-02-02T01:13:51;101064.06;;;7.62;83.60
17785;BME280;9016;53.582;10.062;2023-02-02T01:16:19;101075.53;;;7.63;84.37
17785;BME280;9016;53.582;10.062;2023-02-02T01:18:48;101076.00;;;7.52;84.38
17785;BME280;9016;53.582;10.062;2023-02-02T01:21:16;101072.22;;;7.58;84.49
17785;BME280;9016;53.582;10.062;2023-02-02T01:23:46;101072.25;;;7.56;84.06
17785;BME280;9016;53.582;10.062;2023-02-02T01:26:15;101083.63;;;7.60;83.47
17785;BME280;9016;53.582;10.062;2023-02-02T01:28:43;101084.06;;;7.49;83.88
17785;BME280;9016;53.582;10.062;2023-02-02T01:31:14;101084.13;;;7.48;84.32
17785;BME280;9016;53.582;10.062;2023-02-02T01:33:43;101084.59;;;7.37;84.29
17785;BME280;9016;53.582;10.062;2023-02-02T01:36:14;101092.59;;;7.36;85.01
17785;BME280;9016;53.582;10.062;2023-02-02T01:38:42;101101.69;;;7.30;85.21
17785;BME280;9016;53.582;10.062;2023-02-02T01:41:15;101106.97;;;7.30;85.46
17785;BME280;9016;53.582;10.062;2023-02-02T01:43:52;101119.94;;;7.36;85.68
17785;BME280;9016;53.582;10.062;2023-02-02T01:46:23;101111.41;;;7.30;85.99
17785;BME280;9016;53.582;10.062;2023-02-02T01:48:55;101125.53;;;7.30;87.14
17785;BME280;9016;53.582;10.062;2023-02-02T01:51:28;101122.06;;;7.28;87.68
17785;BME280;9016;53.582;10.062;2023-02-02T01:53:58;101128.50;;;7.23;87.94
17785;BME280;9016;53.582;10.062;2023-02-02T01:56:33;101118.56;;;7.06;88.31
17785;BME280;9016;53.582;10.062;2023-02-02T01:59:03;101128.41;;;7.03;88.33
17785;BME280;9016;53.582;10.062;2023-02-02T02:01:32;101152.44;;;6.98;87.94
17785;BME280;9016;53.582;10.062;2023-02-02T02:04:00;101154.19;;;6.99;88.59
17785;BME280;9016;53.582;10.062;2023-02-02T02:06:28;101158.31;;;7.06;88.04
17785;BME280;9016;53.582;10.062;2023-02-02T02:08:58;101160.22;;;7.03;87.75
17785;BME280;9016;53.582;10.062;2023-02-02T02:11:31;101162.44;;;7.13;86.68
17785;BME280;9016;53.582;10.062;2023-02-02T02:14:02;101173.09;;;7.12;86.63
17785;BME280;9016;53.582;10.062;2023-02-02T02:17:05;101168.72;;;7.11;86.17
17785;BME280;9016;53.582;10.062;2023-02-02T02:20:16;101166.25;;;7.06;86.42
17785;BME280;9016;53.582;10.062;2023-02-02T02:26:42;101185.31;;;6.92;87.68
17785;BME280;9016;53.582;10.062;2023-02-02T02:29:35;101188.91;;;6.91;87.79
17785;BME280;9016;53.582;10.062;2023-02-02T02:32:25;101188.91;;;6.91;88.41
17785;BME280;9016;53.582;10.062;2023-02-02T02:34:58;101189.88;;;6.89;88.73
17785;BME280;9016;53.582;10.062;2023-02-02T02:37:35;101196.25;;;6.83;89.02
17785;BME280;9016;53.582;10.062;2023-02-02T02:40:10;101200.63;;;6.84;89.70
17785;BME280;9016;53.582;10.062;2023-02-02T02:42:41;101197.16;;;6.82;89.92
17785;BME280;9016;53.582;10.062;2023-02-02T02:45:12;101194.53;;;6.82;89.71
17785;BME280;9016;53.582;10.062;2023-02-02T02:47:42;101207.09;;;6.77;90.53
17785;BME280;9016;53.582;10.062;2023-02-02T02:50:10;101203.41;;;6.81;90.76
17785;BME280;9016;53.582;10.062;2023-02-02T02:52:39;101213.19;;;6.79;90.09
17785;BME280;9016;53.582;10.062;2023-02-02T02:55:09;101208.16;;;6.72;90.83
17785;BME280;9016;53.582;10.062;2023-02-02T02:57:46;101218.53;;;6.78;90.87
17785;BME280;9016;53.582;10.062;2023-02-02T03:00:30;101220.31;;;6.77;90.20
17785;BME280;9016;53.582;10.062;2023-02-02T03:03:06;101222.88;;;6.80;90.65
17785;BME280;9016;53.582;10.062;2023-02-02T03:05:45;101226.91;;;6.90;89.98
17785;BME280;9016;53.582;10.062;2023-02-02T03:08:19;101215.41;;;6.91;89.76
17785;BME280;9016;53.582;10.062;2023-02-02T03:10:50;101217.56;;;7.03;89.75
17785;BME280;9016;53.582;10.062;2023-02-02T03:13:19;101220.66;;;7.15;88.53
17785;BME280;9016;53.582;10.062;2023-02-02T03:15:46;101228.56;;;7.16;88.39
17785;BME280;9016;53.582;10.062;2023-02-02T03:18:18;101231.03;;;7.21;87.68
17785;BME280;9016;53.582;10.062;2023-02-02T03:20:47;101225.31;;;7.31;87.83
17785;BME280;9016;53.582;10.062;2023-02-02T03:23:14;101233.94;;;7.36;87.18
17785;BME280;9016;53.582;10.062;2023-02-02T03:25:42;101251.47;;;7.40;86.60
17785;BME280;9016;53.582;10.062;2023-02-02T03:28:11;101267.28;;;7.43;87.59
17785;BME280;9016;53.582;10.062;2023-02-02T03:30:40;101269.56;;;7.52;87.48
17785;BME280;9016;53.582;10.062;2023-02-02T03:33:10;101266.03;;;7.52;87.11
17785;BME280;9016;53.582;10.062;2023-02-02T03:35:40;101258.97;;;7.51;87.41
17785;BME280;9016;53.582;10.062;2023-02-02T03:38:08;101268.56;;;7.55;87.20
17785;BME280;9016;53.582;10.062;2023-02-02T03:40:38;101281.28;;;7.45;86.86
17785;BME280;9016;53.582;10.062;2023-02-02T03:43:06;101270.66;;;7.47;86.14
17785;BME280;9016;53.582;10.062;2023-02-02T03:45:35;101271.19;;;7.55;86.74
17785;BME280;9016;53.582;10.062;2023-02-02T03:48:06;101282.91;;;7.49;85.67
17785;BME280;9016;53.582;10.062;2023-02-02T03:50:34;101282.81;;;7.52;86.06
17785;BME280;9016;53.582;10.062;2023-02-02T03:53:05;101294.00;;;7.37;86.63
17785;BME280;9016;53.582;10.062;2023-02-02T03:55:32;101299.03;;;7.45;86.27
17785;BME280;9016;53.582;10.062;2023-02-02T03:58:00;101299.91;;;7.44;85.56
17785;BME280;9016;53.582;10.062;2023-02-02T04:00:28;101302.19;;;7.54;85.73
17785;BME280;9016;53.582;10.062;2023-02-02T04:02:56;101306.84;;;7.48;84.49
17785;BME280;9016;53.582;10.062;2023-02-02T04:05:24;101303.97;;;7.31;84.41
17785;BME280;9016;53.582;10.062;2023-02-02T04:07:53;101307.03;;;7.20;85.07
17785;BME280;9016;53.582;10.062;2023-02-02T04:10:22;101315.56;;;7.28;84.85
17785;BME280;9016;53.582;10.062;2023-02-02T04:12:50;101317.94;;;7.36;84.67
17785;BME280;9016;53.582;10.062;2023-02-02T04:15:18;101312.16;;;7.25;84.86
17785;BME280;9016;53.582;10.062;2023-02-02T04:17:46;101318.16;;;7.30;84.86
17785;BME280;9016;53.582;10.062;2023-02-02T04:20:14;101322.78;;;7.25;84.16
17785;BME280;9016;53.582;10.062;2023-02-02T04:22:42;101331.47;;;7.28;85.09
17785;BME280;9016;53.582;10.062;2023-02-02T04:25:10;101337.22;;;7.39;84.29
17785;BME280;9016;53.582;10.062;2023-02-02T04:27:40;101333.59;;;7.42;84.24
17785;BME280;9016;53.582;10.062;2023-02-02T04:30:09;101342.22;;;7.24;84.00
17785;BME280;9016;53.582;10.062;2023-02-02T04:32:37;101343.72;;;7.08;85.25
17785;BME280;9016;53.582;10.062;2023-02-02T04:35:06;101361.06;;;7.16;85.93
17785;BME280;9016;53.582;10.062;2023-02-02T04:37:34;101362.81;;;7.17;85.15
17785;BME280;9016;53.582;10.062;2023-02-02T04:40:02;101366.63;;;7.09;85.26
17785;BME280;9016;53.582;10.062;2023-02-02T04:42:30;101378.28;;;7.05;85.69
17785;BME280;9016;53.582;10.062;2023-02-02T04:45:01;101369.78;;;6.95;86.42
17785;BME280;9016;53.582;10.062;2023-02-02T04:47:29;101365.25;;;6.98;87.42
17785;BME280;9016;53.582;10.062;2023-02-02T04:49:57;101368.47;;;7.07;86.56
17785;BME280;9016;53.582;10.062;2023-02-02T04:52:25;101379.88;;;7.09;86.98
17785;BME280;9016;53.582;10.062;2023-02-02T04:54:53;101375.38;;;7.11;87.58
17785;BME280;9016;53.582;10.062;2023-02-02T04:57:21;101374.25;;;7.18;88.59
17785;BME280;9016;53.582;10.062;2023-02-02T04:59:49;101376.81;;;7.21;88.43
17785;BME280;9016;53.582;10.062;2023-02-02T05:02:18;101377.72;;;7.20;88.85
17785;BME280;9016;53.582;10.062;2023-02-02T05:04:46;101378.53;;;7.22;89.04
17785;BME280;9016;53.582;10.062;2023-02-02T05:07:14;101382.84;;;7.24;88.91
17785;BME280;9016;53.582;10.062;2023-02-02T05:09:42;101389.66;;;7.31;88.26
17785;BME280;9016;53.582;10.062;2023-02-02T05:12:10;101394.16;;;7.29;88.18
17785;BME280;9016;53.582;10.062;2023-02-02T05:14:38;101395.25;;;7.24;87.98
17785;BME280;9016;53.582;10.062;2023-02-02T05:17:06;101401.19;;;7.30;88.70
17785;BME280;9016;53.582;10.062;2023-02-02T05:19:35;101405.28;;;7.16;88.21
17785;BME280;9016;53.582;10.062;2023-02-02T05:22:03;101409.69;;;7.15;89.22
17785;BME280;9016;53.582;10.062;2023-02-02T05:24:31;101407.69;;;7.22;90.41
17785;BME280;9016;53.582;10.062;2023-02-02T05:26:59;101393.94;;;7.11;86.91
17785;BME280;9016;53.582;10.062;2023-02-02T05:29:27;101409.47;;;7.21;87.45
17785;BME280;9016;53.582;10.062;2023-02-02T05:31:56;101395.78;;;7.09;87.39
17785;BME280;9016;53.582;10.062;2023-02-02T05:34:24;101408.34;;;7.03;86.78
17785;BME280;9016;53.582;10.062;2023-02-02T05:36:54;101406.69;;;6.99;87.15
17785;BME280;9016;53.582;10.062;2023-02-02T05:39:22;101418.63;;;6.86;87.61
17785;BME280;9016;53.582;10.062;2023-02-02T05:41:50;101421.19;;;6.89;87.99
17785;BME280;9016;53.582;10.062;2023-02-02T05:44:18;101423.78;;;6.91;87.82
17785;BME280;9016;53.582;10.062;2023-02-02T05:46:46;101425.50;;;6.92;87.70
17785;BME280;9016;53.582;10.062;2023-02-02T05:49:14;101425.47;;;6.93;88.92
17785;BME280;9016;53.582;10.062;2023-02-02T05:51:43;101429.78;;;6.96;88.96
17785;BME280;9016;53.582;10.062;2023-02-02T05:54:14;101426.31;;;6.94;88.99
17785;BME280;9016;53.582;10.062;2023-02-02T05:56:46;101428.84;;;6.98;90.17
17785;BME280;9016;53.582;10.062;2023-02-02T05:59:14;101426.75;;;7.07;89.95
17785;BME280;9016;53.582;10.062;2023-02-02T06:01:43;101436.34;;;7.11;89.40
17785;BME280;9016;53.582;10.062;2023-02-02T06:04:11;101439.59;;;7.19;89.99
17785;BME280;9016;53.582;10.062;2023-02-02T06:06:40;101441.22;;;7.23;89.26
17785;BME280;9016;53.582;10.062;2023-02-02T06:09:08;101444.22;;;7.14;88.41
17785;BME280;9016;53.582;10.062;2023-02-02T06:11:38;101447.66;;;7.16;88.46
17785;BME280;9016;53.582;10.062;2023-02-02T06:14:06;101443.59;;;7.06;88.82
17785;BME280;9016;53.582;10.062;2023-02-02T06:16:34;101452.19;;;7.12;89.17
17785;BME280;9016;53.582;10.062;2023-02-02T06:19:03;101458.97;;;7.21;88.65
17785;BME280;9016;53.582;10.062;2023-02-02T06:21:31;101462.78;;;7.12;88.53
17785;BME280;9016;53.582;10.062;2023-02-02T06:23:59;101466.09;;;7.19;88.73
17785;BME280;9016;53.582;10.062;2023-02-02T06:26:27;101468.63;;;7.22;88.30
17785;BME280;9016;53.582;10.062;2023-02-02T06:28:57;101470.13;;;7.30;88.64
17785;BME280;9016;53.582;10.062;2023-02-02T06:31:25;101466.66;;;7.28;87.87
17785;BME280;9016;53.582;10.062;2023-02-02T06:33:55;101468.97;;;7.37;87.97
17785;BME280;9016;53.582;10.062;2023-02-02T06:36:24;101472.38;;;7.41;88.51
17785;BME280;9016;53.582;10.062;2023-02-02T06:38:54;101484.63;;;7.45;88.27
17785;BME280;9016;53.582;10.062;2023-02-02T06:41:23;101495.91;;;7.50;87.45
17785;BME280;9016;53.582;10.062;2023-02-02T06:43:51;101499.38;;;7.52;87.52
17785;BME280;9016;53.582;10.062;2023-02-02T06:46:21;101501.97;;;7.53;87.51
17785;BME280;9016;53.582;10.062;2023-02-02T06:48:49;101501.28;;;7.48;87.63
17785;BME280;9016;53.582;10.062;2023-02-02T06:51:17;101506.78;;;7.42;88.09
17785;BME280;9016;53.582;10.062;2023-02-02T06:53:46;101510.13;;;7.47;88.04
17785;BME280;9016;53.582;10.062;2023-02-02T06:56:15;101508.16;;;7.54;87.17
17785;BME280;9016;53.582;10.062;2023-02-02T06:58:43;101507.94;;;7.60;87.48
17785;BME280;9016;53.582;10.062;2023-02-02T07:01:12;101514.41;;;7.51;86.35
17785;BME280;9016;53.582;10.062;2023-02-02T07:03:42;101517.84;;;7.29;86.02
17785;BME280;9016;53.582;10.062;2023-02-02T07:06:12;101524.97;;;7.28;86.86
17785;BME280;9016;53.582;10.062;2023-02-02T07:08:40;101529.50;;;7.25;86.51
17785;BME280;9016;53.582;10.062;2023-02-02T07:11:09;101527.00;;;7.20;86.35
17785;BME280;9016;53.582;10.062;2023-02-02T07:13:42;101538.63;;;7.16;87.20
17785;BME280;9016;53.582;10.062;2023-02-02T07:16:10;101538.56;;;7.18;86.12
17785;BME280;9016;53.582;10.062;2023-02-02T07:18:38;101544.81;;;7.17;86.77
17785;BME280;9016;53.582;10.062;2023-02-02T07:21:15;101538.06;;;7.07;85.62
17785;BME280;9016;53.582;10.062;2023-02-02T07:23:43;101548.81;;;7.02;85.75
17785;BME280;9016;53.582;10.062;2023-02-02T07:26:12;101553.75;;;7.13;84.90
17785;BME280;9016;53.582;10.062;2023-02-02T07:28:41;101551.81;;;7.18;84.05
17785;BME280;9016;53.582;10.062;2023-02-02T07:31:13;101552.03;;;7.12;83.54
17785;BME280;9016;53.582;10.062;2023-02-02T07:33:43;101552.94;;;7.11;84.51
17785;BME280;9016;53.582;10.062;2023-02-02T07:36:14;101558.47;;;7.05;84.45
17785;BME280;9016;53.582;10.062;2023-02-02T07:38:43;101569.09;;;7.03;85.45
17785;BME280;9016;53.582;10.062;2023-02-02T07:41:11;101572.72;;;7.00;85.08
17785;BME280;9016;53.582;10.062;2023-02-02T07:43:40;101569.06;;;7.05;85.38
17785;BME280;9016;53.582;10.062;2023-02-02T07:46:09;101577.09;;;7.01;85.66
17785;BME280;9016;53.582;10.062;2023-02-02T07:48:40;101577.09;;;7.01;86.86
17785;BME280;9016;53.582;10.062;2023-02-02T07:51:10;101589.78;;;7.18;86.43
17785;BME280;9016;53.582;10.062;2023-02-02T07:53:43;101596.72;;;7.22;85.45
17785;BME280;9016;53.582;10.062;2023-02-02T07:56:12;101601.22;;;7.20;86.66
17785;BME280;9016;53.582;10.062;2023-02-02T07:58:42;101605.50;;;7.24;87.06
17785;BME280;9016;53.582;10.062;2023-02-02T08:01:12;101611.44;;;7.32;86.46
17785;BME280;9016;53.582;10.062;2023-02-02T08:03:41;101609.53;;;7.36;85.24
17785;BME280;9016;53.582;10.062;2023-02-02T08:06:12;101611.22;;;7.38;86.03
17785;BME280;9016;53.582;10.062;2023-02-02T08:08:41;101613.22;;;7.32;85.95
17785;BME280;9016;53.582;10.062;2023-02-02T08:11:12;101620.28;;;7.31;86.32
17785;BME280;9016;53.582;10.062;2023-02-02T08:13:41;101625.75;;;7.27;86.01
17785;BME280;9016;53.582;10.062;2023-02-02T08:16:10;101638.78;;;7.33;86.60
17785;BME280;9016;53.582;10.062;2023-02-02T08:18:39;101636.75;;;7.41;86.51
17785;BME280;9016;53.582;10.062;2023-02-02T08:21:07;101638.91;;;7.56;85.04
17785;BME280;9016;53.582;10.062;2023-02-02T08:23:36;101638.91;;;7.56;83.68
17785;BME280;9016;53.582;10.062;2023-02-02T08:26:06;101650.47;;;7.53;84.50
17785;BME280;9016;53.582;10.062;2023-02-02T08:28:36;101653.19;;;7.52;83.40
17785;BME280;9016;53.582;10.062;2023-02-02T08:31:06;101654.97;;;7.51;83.80
17785;BME280;9016;53.582;10.062;2023-02-02T08:33:35;101654.59;;;7.62;84.38
17785;BME280;9016;53.582;10.062;2023-02-02T08:36:08;101654.66;;;7.60;83.62
17785;BME280;9016;53.582;10.062;2023-02-02T08:38:38;101659.50;;;7.48;84.01
17785;BME280;9016;53.582;10.062;2023-02-02T08:41:08;101665.81;;;7.44;84.37
17785;BME280;9016;53.582;10.062;2023-02-02T08:43:37;101671.75;;;7.52;84.25
17785;BME280;9016;53.582;10.062;2023-02-02T08:46:07;101668.16;;;7.54;84.24
17785;BME280;9016;53.582;10.062;2023-02-02T08:48:36;101668.16;;;7.54;83.68
17785;BME280;9016;53.582;10.062;2023-02-02T08:51:08;101669.75;;;7.58;83.52
17785;BME280;9016;53.582;10.062;2023-02-02T08:53:37;101672.31;;;7.61;83.88
17785;BME280;9016;53.582;10.062;2023-02-02T08:56:06;101686.59;;;7.57;82.97
17785;BME280;9016;53.582;10.062;2023-02-02T08:58:37;101674.03;;;7.62;83.16
17785;BME280;9016;53.582;10.062;2023-02-02T09:01:07;101684.97;;;7.53;83.56
17785;BME280;9016;53.582;10.062;2023-02-02T09:03:36;101690.13;;;7.58;83.36
17785;BME280;9016;53.582;10.062;2023-02-02T09:06:09;101689.06;;;7.63;83.31
17785;BME280;9016;53.582;10.062;2023-02-02T09:08:37;101692.97;;;7.78;82.63
17785;BME280;9016;53.582;10.062;2023-02-02T09:11:07;101704.03;;;7.90;82.84
17785;BME280;9016;53.582;10.062;2023-02-02T09:13:38;101706.13;;;8.07;81.84
17785;BME280;9016;53.582;10.062;2023-02-02T09:16:08;101709.69;;;8.06;81.61
17785;BME280;9016;53.582;10.062;2023-02-02T09:18:37;101702.09;;;7.95;82.15
17785;BME280;9016;53.582;10.062;2023-02-02T09:21:07;101709.91;;;8.00;81.97
17785;BME280;9016;53.582;10.062;2023-02-02T09:23:37;101720.59;;;7.98;81.84
17785;BME280;9016;53.582;10.062;2023-02-02T09:26:09;101725.59;;;7.81;80.91
17785;BME280;9016;53.582;10.062;2023-02-02T09:28:40;101732.00;;;7.74;81.14
17785;BME280;9016;53.582;10.062;2023-02-02T09:31:08;101746.28;;;7.70;81.01
17785;BME280;9016;53.582;10.062;2023-02-02T09:33:36;101745.81;;;7.84;81.25
17785;BME280;9016;53.582;10.062;2023-02-02T09:36:07;101743.91;;;7.89;81.43
17785;BME280;9016;53.582;10.062;2023-02-02T09:38:35;101747.47;;;7.88;80.74
17785;BME280;9016;53.582;10.062;2023-02-02T09:41:21;101753.63;;;7.88;79.57
17785;BME280;9016;53.582;10.062;2023-02-02T09:44:03;101755.28;;;7.92;80.90
17785;BME280;9016;53.582;10.062;2023-02-02T09:46:43;101768.25;;;8.01;80.93
17785;BME280;9016;53.582;10.062;2023-02-02T09:49:16;101758.13;;;7.86;79.87
17785;BME280;9016;53.582;10.062;2023-02-02T09:51:52;101769.88;;;7.79;79.81
17785;BME280;9016;53.582;10.062;2023-02-02T09:54:26;101762.31;;;7.93;80.04
17785;BME280;9016;53.582;10.062;2023-02-02T09:56:57;101770.72;;;8.06;80.35
17785;BME280;9016;53.582;10.062;2023-02-02T09:59:33;101760.97;;;8.07;79.54
17785;BME280;9016;53.582;10.062;2023-02-02T10:02:04;101773.50;;;8.03;79.85
17785;BME280;9016;53.582;10.062;2023-02-02T10:04:35;101780.75;;;7.98;79.45
17785;BME280;9016;53.582;10.062;2023-02-02T10:07:08;101782.63;;;7.94;79.55
17785;BME280;9016;53.582;10.062;2023-02-02T10:09:42;101779.75;;;8.00;78.42
17785;BME280;9016;53.582;10.062;2023-02-02T10:12:21;101783.41;;;7.98;78.46
17785;BME280;9016;53.582;10.062;2023-02-02T10:14:55;101795.09;;;7.92;78.44
17785;BME280;9016;53.582;10.062;2023-02-02T10:17:36;101800.22;;;7.97;78.21
17785;BME280;9016;53.582;10.062;2023-02-02T10:20:15;101793.97;;;7.99;77.65
17785;BME280;9016;53.582;10.062;2023-02-02T10:22:45;101791.16;;;8.04;77.86
17785;BME280;9016;53.582;10.062;2023-02-02T10:25:15;101801.56;;;8.10;77.47
17785;BME280;9016;53.582;10.062;2023-02-02T10:27:56;101806.97;;;8.07;77.01
17785;BME280;9016;53.582;10.062;2023-02-02T10:30:43;101810.25;;;8.15;76.78
17785;BME280;9016;53.582;10.062;2023-02-02T10:33:20;101820.50;;;8.27;76.48
17785;BME280;9016;53.582;10.062;2023-02-02T10:35:58;101829.16;;;8.32;75.97
17785;BME280;9016;53.582;10.062;2023-02-02T10:38:36;101824.59;;;8.62;76.17
17785;BME280;9016;53.582;10.062;2023-02-02T10:41:14;101844.72;;;8.69;74.23
17785;BME280;9016;53.582;10.062;2023-02-02T10:46:53;101853.19;;;9.05;74.63
17785;BME280;9016;53.582;10.062;2023-02-02T10:49:26;101853.19;;;9.05;73.46
17785;BME280;9016;53.582;10.062;2023-02-02T10:52:00;101854.38;;;8.96;70.97
17785;BME280;9016;53.582;10.062;2023-02-02T10:54:49;101864.41;;;9.13;70.67
17785;BME280;9016;53.582;10.062;2023-02-02T10:57:31;101871.56;;;9.11;69.66
17785;BME280;9016;53.582;10.062;2023-02-02T11:00:09;101866.78;;;9.20;69.49
17785;BME280;9016;53.582;10.062;2023-02-02T11:02:40;101869.81;;;9.34;68.45
17785;BME280;9016;53.582;10.062;2023-02-02T11:05:12;101870.34;;;9.44;68.54
17785;BME280;9016;53.582;10.062;2023-02-02T11:07:59;101875.47;;;9.25;68.27
17785;BME280;9016;53.582;10.062;2023-02-02T11:10:28;101873.22;;;9.15;67.95
17785;BME280;9016;53.582;10.062;2023-02-02T11:12:59;101871.38;;;9.17;68.46
17785;BME280;9016;53.582;10.062;2023-02-02T11:15:29;101873.00;;;9.44;68.03
17785;BME280;9016;53.582;10.062;2023-02-02T11:18:11;101872.00;;;9.46;66.70
17785;BME280;9016;53.582;10.062;2023-02-02T11:20:41;101866.63;;;9.48;66.73
17785;BME280;9016;53.582;10.062;2023-02-02T11:23:17;101866.56;;;9.49;66.69
17785;BME280;9016;53.582;10.062;2023-02-02T11:25:56;101878.13;;;9.48;66.97
17785;BME280;9016;53.582;10.062;2023-02-02T11:28:25;101881.03;;;9.42;66.66
17785;BME280;9016;53.582;10.062;2023-02-02T11:30:56;101873.97;;;9.41;67.42
17785;BME280;9016;53.582;10.062;2023-02-02T11:33:28;101876.22;;;9.29;67.09
17785;BME280;9016;53.582;10.062;2023-02-02T11:35:58;101885.06;;;9.29;67.45
17785;BME280;9016;53.582;10.062;2023-02-02T11:38:27;101883.94;;;9.12;67.13
17785;BME280;9016;53.582;10.062;2023-02-02T11:40:58;101877.47;;;9.19;67.33
17785;BME280;9016;53.582;10.062;2023-02-02T11:43:31;101885.84;;;9.08;66.57
17785;BME280;9016;53.582;10.062;2023-02-02T11:46:02;101886.16;;;8.99;66.39
17785;BME280;9016;53.582;10.062;2023-02-02T11:48:36;101886.38;;;9.18;66.01
17785;BME280;9016;53.582;10.062;2023-02-02T11:51:06;101884.53;;;9.20;66.33
17785;BME280;9016;53.582;10.062;2023-02-02T11:53:39;101887.66;;;9.31;66.40
17785;BME280;9016;53.582;10.062;2023-02-02T11:56:16;101888.38;;;9.36;66.23
17785;BME280;9016;53.582;10.062;2023-02-02T11:58:46;101890.81;;;9.42;66.10
17785;BME280;9016;53.582;10.062;2023-02-02T12:01:23;101890.06;;;9.38;65.71
17785;BME280;9016;53.582;10.062;2023-02-02T12:03:54;101888.03;;;9.45;66.12
17785;BME280;9016;53.582;10.062;2023-02-02T12:06:24;101893.75;;;9.34;65.83
17785;BME280;9016;53.582;10.062;2023-02-02T12:08:56;101895.19;;;9.20;66.07
17785;BME280;9016;53.582;10.062;2023-02-02T12:11:45;101892.41;;;9.23;66.05
17785;BME280;9016;53.582;10.062;2023-02-02T12:14:30;101892.03;;;9.33;65.91
17785;BME280;9016;53.582;10.062;2023-02-02T12:17:10;101902.59;;;9.35;66.33
17785;BME280;9016;53.582;10.062;2023-02-02T12:25:57;101907.56;;;9.90;64.54
17785;BME280;9016;53.582;10.062;2023-02-02T12:28:41;101912.69;;;9.94;63.77
17785;BME280;9016;53.582;10.062;2023-02-02T12:31:17;101913.41;;;9.99;63.84
17785;BME280;9016;53.582;10.062;2023-02-02T12:34:01;101919.66;;;9.98;62.00
17785;BME280;9016;53.582;10.062;2023-02-02T12:36:40;101909.38;;;9.89;60.17
17785;BME280;9016;53.582;10.062;2023-02-02T12:39:20;101902.78;;;9.98;60.72
17785;BME280;9016;53.582;10.062;2023-02-02T12:42:11;101902.63;;;9.81;61.29
17785;BME280;9016;53.582;10.062;2023-02-02T12:44:55;101906.56;;;9.92;62.40
17785;BME280;9016;53.582;10.062;2023-02-02T12:47:30;101908.56;;;10.11;61.67
17785;BME280;9016;53.582;10.062;2023-02-02T12:50:14;101898.22;;;10.25;59.96
17785;BME280;9016;53.582;10.062;2023-02-02T12:52:58;101911.09;;;10.35;60.41
17785;BME280;9016;53.582;10.062;2023-02-02T12:55:36;101905.25;;;10.26;60.39
17785;BME280;9016;53.582;10.062;2023-02-02T12:58:15;101910.50;;;10.06;60.39
17785;BME280;9016;53.582;10.062;2023-02-02T13:00:57;101907.22;;;9.99;61.43
17785;BME280;9016;53.582;10.062;2023-02-02T13:03:37;101912.91;;;9.90;61.20
17785;BME280;9016;53.582;10.062;2023-02-02T13:09:20;101913.03;;;9.64;61.98
17785;BME280;9016;53.582;10.062;2023-02-02T13:11:53;101927.78;;;9.49;63.04
17785;BME280;9016;53.582;10.062;2023-02-02T13:14:26;101930.44;;;9.49;63.00
17785;BME280;9016;53.582;10.062;2023-02-02T13:17:01;101920.69;;;9.48;62.70
17785;BME280;9016;53.582;10.062;2023-02-02T13:19:35;101924.22;;;9.49;63.41
17785;BME280;9016;53.582;10.062;2023-02-02T13:22:09;101922.84;;;9.62;62.98
17785;BME280;9016;53.582;10.062;2023-02-02T13:24:45;101916.59;;;9.63;63.06
17785;BME280;9016;53.582;10.062;2023-02-02T13:27:18;101919.31;;;9.61;62.37
17785;BME280;9016;53.582;10.062;2023-02-02T13:29:51;101924.53;;;9.64;62.25
17785;BME280;9016;53.582;10.062;2023-02-02T13:32:25;101923.25;;;9.51;61.39
17785;BME280;9016;53.582;10.062;2023-02-02T13:34:55;101930.44;;;9.49;61.90
17785;BME280;9016;53.582;10.062;2023-02-02T13:37:30;101933.25;;;9.45;61.83
17785;BME280;9016;53.582;10.062;2023-02-02T13:40:14;101932.16;;;9.50;60.29